Pulau Tioman — 3EYO9 — position and weather

sailwx.info

Track history (hours):
 
Tides and Currents Weather Stations Pressure Air Temp Water Temp Dewpoint Dewpoint Depression Visibility Wind Speed Wind Dir Waves Ship Positions

Pulau Tioman

Last reported at 2016-Sep-27 00:33 UTC. Time now 2016-Sep-28 08:38 UTC.
Position N 35°26' E 139°42'.

Length 120 m; draft 6.9 m.

Type: Cargo ship. MMSI: 356613000.

Date/timePositionNaut miles runAvg speedWind from/ knotsBaromVisibWave heightAir tempDewpointWater temp
2016-Sep-27 00:33N 35°26' E 139°42'1 0.3
2016-Sep-26 20:31N 35°25' E 139°42'0 0.0
2016-Sep-26 19:31N 35°25' E 139°42'0 0.0
2016-Sep-26 15:31N 35°26' E 139°42'0 0.0
2016-Sep-26 13:31N 35°26' E 139°42'0 0.0
2016-Sep-26 11:31N 35°26' E 139°42'0 0.0
2016-Sep-26 08:31N 35°26' E 139°42'0 0.0
2016-Sep-26 02:31N 35°26' E 139°42'0 0.0
2016-Sep-26 01:31N 35°26' E 139°42'0 0.0
2016-Sep-26 00:31N 35°26' E 139°42'0 0.0
2016-Sep-25 21:31N 35°25' E 139°42'0 0.0
2016-Sep-25 17:25N 35°25' E 139°42'0 0.0
2016-Sep-25 16:31N 35°26' E 139°42'0 0.0
2016-Sep-25 15:31N 35°26' E 139°42'0 0.0
2016-Sep-25 14:31N 35°26' E 139°42'0 0.0
2016-Sep-25 12:31N 35°26' E 139°42'0 0.0
2016-Sep-25 11:31N 35°26' E 139°42'0 0.0
2016-Sep-25 10:31N 35°26' E 139°42'0 0.0
2016-Sep-25 09:31N 35°26' E 139°42'0 0.0
2016-Sep-25 07:31N 35°26' E 139°42'0 0.0
2016-Sep-25 04:31N 35°25' E 139°42'0 0.0
2016-Sep-25 00:31N 35°26' E 139°42'0 0.0
2016-Sep-24 22:31N 35°25' E 139°42'0 0.0
2016-Sep-24 21:31N 35°25' E 139°42'0 0.0
2016-Sep-24 19:31N 35°25' E 139°42'0 0.0
2016-Sep-24 18:31N 35°25' E 139°42'0 0.0
2016-Sep-24 17:31N 35°25' E 139°42'0 0.0
2016-Sep-24 16:31N 35°25' E 139°42'0 0.0
2016-Sep-24 14:31N 35°25' E 139°42'0 0.0
2016-Sep-24 12:31N 35°26' E 139°42'0 0.1
2016-Sep-24 10:31N 35°26' E 139°42'0 0.1
2016-Sep-24 09:31N 35°26' E 139°42'1 0.2
2016-Sep-24 03:33N 35°25' E 139°43'9 8.8
2016-Sep-24 02:33N 35°16' E 139°46'36 3.2
2016-Sep-23 15:29N 34°51' E 140°16'25 2.8
2016-Sep-23 06:30N 35°11' E 140°35'  
Track history (hours):
 
Tides and Currents Weather Stations Pressure Air Temp Water Temp Dewpoint Dewpoint Depression Visibility Wind Speed Wind Dir Waves Ship Positions

Pulau Tioman

Last reported at 2016-Sep-27 00:33 UTC. Time now 2016-Sep-28 08:38 UTC.
Position N 35°26' E 139°42'.

Length 120 m; draft 6.9 m.

Type: Cargo ship. MMSI: 356613000.

Date/timePositionNaut miles runAvg speedWind from/ knotsBaromVisibWave heightAir tempDewpointWater temp
2016-Sep-27 00:33N 35°26' E 139°42'1 0.3
2016-Sep-26 20:31N 35°25' E 139°42'0 0.0
2016-Sep-26 19:31N 35°25' E 139°42'0 0.0
2016-Sep-26 15:31N 35°26' E 139°42'0 0.0
2016-Sep-26 13:31N 35°26' E 139°42'0 0.0
2016-Sep-26 11:31N 35°26' E 139°42'0 0.0
2016-Sep-26 08:31N 35°26' E 139°42'0 0.0
2016-Sep-26 02:31N 35°26' E 139°42'0 0.0
2016-Sep-26 01:31N 35°26' E 139°42'0 0.0
2016-Sep-26 00:31N 35°26' E 139°42'0 0.0
2016-Sep-25 21:31N 35°25' E 139°42'0 0.0
2016-Sep-25 17:25N 35°25' E 139°42'0 0.0
2016-Sep-25 16:31N 35°26' E 139°42'0 0.0
2016-Sep-25 15:31N 35°26' E 139°42'0 0.0
2016-Sep-25 14:31N 35°26' E 139°42'0 0.0
2016-Sep-25 12:31N 35°26' E 139°42'0 0.0
2016-Sep-25 11:31N 35°26' E 139°42'0 0.0
2016-Sep-25 10:31N 35°26' E 139°42'0 0.0
2016-Sep-25 09:31N 35°26' E 139°42'0 0.0
2016-Sep-25 07:31N 35°26' E 139°42'0 0.0
2016-Sep-25 04:31N 35°25' E 139°42'0 0.0
2016-Sep-25 00:31N 35°26' E 139°42'0 0.0
2016-Sep-24 22:31N 35°25' E 139°42'0 0.0
2016-Sep-24 21:31N 35°25' E 139°42'0 0.0
2016-Sep-24 19:31N 35°25' E 139°42'0 0.0
2016-Sep-24 18:31N 35°25' E 139°42'0 0.0
2016-Sep-24 17:31N 35°25' E 139°42'0 0.0
2016-Sep-24 16:31N 35°25' E 139°42'0 0.0
2016-Sep-24 14:31N 35°25' E 139°42'0 0.0
2016-Sep-24 12:31N 35°26' E 139°42'0 0.1
2016-Sep-24 10:31N 35°26' E 139°42'0 0.1
2016-Sep-24 09:31N 35°26' E 139°42'1 0.2
2016-Sep-24 03:33N 35°25' E 139°43'9 8.8
2016-Sep-24 02:33N 35°16' E 139°46'36 3.2
2016-Sep-23 15:29N 34°51' E 140°16'25 2.8
2016-Sep-23 06:30N 35°11' E 140°35'  

Dump ship's entire track history